createdAt,value
2018-10-06T00:01:15.032Z,81.60
2018-10-06T00:03:44.002Z,81.40
2018-10-06T00:06:13.018Z,81.40
2018-10-06T00:08:42.126Z,81.40
2018-10-06T00:11:11.188Z,81.30
2018-10-06T00:13:40.206Z,81.30
2018-10-06T00:16:09.282Z,81.30
2018-10-06T00:18:38.649Z,81.40
2018-10-06T00:21:07.702Z,81.30
2018-10-06T00:23:36.830Z,81.40
2018-10-06T00:26:05.920Z,81.40
2018-10-06T00:28:35.030Z,81.50
2018-10-06T00:31:04.125Z,81.40
2018-10-06T00:33:34.214Z,81.50
2018-10-06T00:36:03.310Z,81.50
2018-10-06T00:38:32.416Z,81.60
2018-10-06T00:41:01.482Z,81.70
2018-10-06T00:43:30.958Z,81.80
2018-10-06T00:45:59.953Z,81.80
2018-10-06T00:48:28.985Z,81.50
2018-10-06T00:50:58.046Z,81.80
2018-10-06T00:53:27.049Z,81.80
2018-10-06T00:55:56.154Z,81.80
2018-10-06T00:58:25.185Z,81.80
2018-10-06T01:00:54.240Z,81.80
2018-10-06T01:03:23.315Z,81.70
2018-10-06T01:05:52.339Z,81.70
2018-10-06T01:08:21.458Z,81.70
2018-10-06T01:10:50.613Z,81.70
2018-10-06T01:13:19.715Z,81.70
2018-10-06T01:15:48.805Z,81.80
2018-10-06T01:18:17.781Z,81.80
2018-10-06T01:20:46.814Z,81.70
2018-10-06T01:23:15.789Z,81.80
2018-10-06T01:25:44.793Z,81.80
2018-10-06T01:28:13.906Z,81.80
2018-10-06T01:30:42.901Z,81.80
2018-10-06T01:33:11.942Z,81.70
2018-10-06T01:35:40.961Z,81.80
2018-10-06T01:38:10.055Z,81.80
2018-10-06T01:40:39.093Z,81.80
2018-10-06T01:43:08.091Z,81.80
2018-10-06T01:45:37.044Z,81.70
2018-10-06T01:48:06.724Z,81.80
2018-10-06T01:50:35.679Z,81.80
2018-10-06T01:53:04.669Z,81.80
2018-10-06T01:55:33.664Z,81.80
2018-10-06T01:58:02.646Z,81.70
2018-10-06T02:00:31.714Z,81.70
2018-10-06T02:03:00.770Z,81.80
2018-10-06T02:05:29.708Z,81.90
2018-10-06T02:07:58.862Z,81.90
2018-10-06T02:10:28.162Z,82.00
2018-10-06T02:12:57.118Z,81.90
2018-10-06T02:15:26.098Z,82.00
2018-10-06T02:17:55.111Z,82.00
2018-10-06T02:20:24.090Z,82.00
2018-10-06T02:22:53.173Z,82.10
2018-10-06T02:25:22.182Z,82.20
2018-10-06T02:27:51.181Z,82.20
2018-10-06T02:30:20.287Z,82.20
2018-10-06T02:32:49.572Z,82.20
2018-10-06T02:35:18.668Z,82.20
2018-10-06T02:37:47.686Z,82.20
2018-10-06T02:40:16.656Z,82.20
2018-10-06T02:42:45.637Z,82.20
2018-10-06T02:45:14.629Z,82.30
2018-10-06T02:47:43.646Z,82.50
2018-10-06T02:50:12.650Z,82.50
2018-10-06T02:52:41.652Z,82.50
2018-10-06T02:55:10.668Z,82.50
2018-10-06T02:57:39.648Z,82.50
2018-10-06T03:00:08.795Z,82.50
2018-10-06T03:02:37.875Z,82.50
2018-10-06T03:05:07.016Z,82.40
2018-10-06T03:07:35.985Z,82.30
2018-10-06T03:10:05.078Z,82.40
2018-10-06T03:12:34.069Z,82.50
2018-10-06T03:15:03.066Z,83.30
2018-10-06T03:17:32.082Z,82.70
2018-10-06T03:20:01.081Z,82.70
2018-10-06T03:22:30.036Z,83.30
2018-10-06T03:24:59.053Z,82.70
2018-10-06T03:27:28.045Z,82.70
2018-10-06T03:29:57.029Z,82.70
2018-10-06T03:32:26.030Z,82.60
2018-10-06T03:34:55.018Z,82.70
2018-10-06T03:37:24.009Z,82.70
2018-10-06T03:39:53.027Z,82.70
2018-10-06T03:42:22.034Z,82.70
2018-10-06T03:44:51.009Z,82.60
2018-10-06T03:47:20.046Z,82.70
2018-10-06T03:49:49.154Z,82.70
2018-10-06T03:52:18.258Z,82.70
2018-10-06T03:54:47.242Z,82.70
2018-10-06T03:57:16.341Z,82.80
2018-10-06T03:59:45.585Z,82.80
2018-10-06T04:02:14.593Z,82.80
2018-10-06T04:04:43.595Z,82.90
2018-10-06T04:07:12.595Z,82.90
2018-10-06T04:09:41.678Z,82.90
2018-10-06T04:12:10.803Z,82.80
2018-10-06T04:14:49.295Z,82.90
2018-10-06T04:17:18.283Z,82.80
2018-10-06T04:19:47.307Z,82.80
2018-10-06T04:22:16.479Z,82.90
2018-10-06T04:24:45.585Z,83.00
2018-10-06T04:27:14.675Z,83.00
2018-10-06T04:29:43.777Z,83.00
2018-10-06T04:32:12.874Z,83.00
2018-10-06T04:34:41.963Z,83.00
2018-10-06T04:37:11.069Z,83.10
2018-10-06T04:39:40.171Z,83.20
2018-10-06T04:42:09.258Z,83.30
2018-10-06T04:44:38.365Z,83.40
2018-10-06T04:47:07.382Z,83.50
2018-10-06T04:49:36.373Z,83.50
2018-10-06T04:52:05.525Z,83.50
2018-10-06T04:54:34.621Z,83.50
2018-10-06T04:57:03.701Z,83.50
2018-10-06T04:59:32.852Z,83.50
2018-10-06T05:02:01.917Z,83.60
2018-10-06T05:04:31.021Z,84.40
2018-10-06T05:07:00.021Z,83.70
2018-10-06T05:09:28.983Z,83.70
2018-10-06T05:11:58.113Z,84.00
2018-10-06T05:14:27.095Z,84.00
2018-10-06T05:16:56.144Z,84.00
2018-10-06T05:19:25.158Z,83.90
2018-10-06T05:21:54.189Z,84.00
2018-10-06T05:24:23.233Z,84.10
2018-10-06T05:26:52.209Z,84.10
2018-10-06T05:29:21.237Z,84.20
2018-10-06T05:31:50.387Z,84.20
2018-10-06T05:34:19.626Z,84.20
2018-10-06T05:36:48.713Z,84.10
2018-10-06T05:39:17.833Z,84.10
2018-10-06T05:41:46.934Z,84.10
2018-10-06T05:44:16.007Z,84.10
2018-10-06T05:46:45.103Z,84.10
2018-10-06T05:49:14.201Z,84.20
2018-10-06T05:51:43.299Z,84.20
2018-10-06T05:54:12.383Z,84.20
2018-10-06T05:56:41.466Z,84.20
2018-10-06T05:59:10.588Z,84.20
2018-10-06T06:01:39.585Z,84.20
2018-10-06T06:04:08.575Z,84.20
2018-10-06T06:06:37.568Z,84.30
2018-10-06T06:09:06.998Z,84.90
2018-10-06T06:11:36.276Z,84.30
2018-10-06T06:14:05.368Z,84.40
2018-10-06T06:16:34.430Z,84.40
2018-10-06T06:19:03.446Z,84.40
2018-10-06T06:21:32.467Z,84.70
2018-10-06T06:24:01.700Z,84.80
2018-10-06T06:26:30.509Z,84.80
2018-10-06T06:28:59.706Z,85.10
2018-10-06T06:31:28.741Z,85.20
2018-10-06T06:33:57.786Z,85.30
2018-10-06T06:36:26.772Z,85.60
2018-10-06T06:38:55.810Z,85.60
2018-10-06T06:41:24.917Z,85.70
2018-10-06T06:43:54.055Z,85.90
2018-10-06T06:46:22.990Z,86.20
2018-10-06T06:48:52.084Z,86.30
2018-10-06T06:51:21.190Z,86.30
2018-10-06T06:53:50.310Z,86.50
2018-10-06T06:56:19.301Z,86.60
2018-10-06T06:58:48.369Z,86.60
2018-10-06T07:01:17.466Z,86.70
2018-10-06T07:03:46.547Z,86.90
2018-10-06T07:06:15.638Z,86.70
2018-10-06T07:08:44.803Z,86.90
2018-10-06T07:11:13.834Z,86.90
2018-10-06T07:13:42.977Z,87.00
2018-10-06T07:16:12.048Z,87.80
2018-10-06T07:18:41.301Z,87.50
2018-10-06T07:21:10.309Z,87.60
2018-10-06T07:23:39.429Z,87.70
2018-10-06T07:26:08.493Z,87.60
2018-10-06T07:28:37.683Z,87.70
2018-10-06T07:31:06.787Z,87.90
2018-10-06T07:33:35.947Z,88.10
2018-10-06T07:36:05.042Z,88.50
2018-10-06T07:38:34.223Z,88.60
2018-10-06T07:41:03.399Z,89.00
2018-10-06T07:43:32.496Z,89.00
2018-10-06T07:46:01.600Z,89.20
2018-10-06T07:48:30.658Z,89.20
2018-10-06T07:50:59.846Z,89.20
2018-10-06T07:53:28.976Z,89.40
2018-10-06T07:55:58.036Z,89.30
2018-10-06T07:58:27.030Z,89.50
2018-10-06T08:00:56.074Z,89.90
2018-10-06T08:03:25.255Z,89.60
2018-10-06T08:05:54.325Z,89.70
2018-10-06T08:08:23.319Z,90.00
2018-10-06T08:10:52.331Z,90.00
2018-10-06T08:13:21.446Z,90.00
2018-10-06T08:15:50.528Z,90.10
2018-10-06T08:18:19.623Z,90.20
2018-10-06T08:20:48.623Z,90.20
2018-10-06T08:23:17.812Z,90.20
2018-10-06T08:25:46.870Z,90.30
2018-10-06T08:28:15.909Z,90.30
2018-10-06T08:30:44.931Z,90.40
2018-10-06T08:33:14.033Z,90.60
2018-10-06T08:35:43.061Z,90.60
2018-10-06T08:38:12.069Z,90.70
2018-10-06T08:40:41.215Z,90.80
2018-10-06T08:43:10.255Z,90.80
2018-10-06T08:45:39.419Z,90.90
2018-10-06T08:48:08.563Z,91.10
2018-10-06T08:50:37.667Z,91.00
2018-10-06T08:53:06.948Z,91.10
2018-10-06T08:55:36.048Z,91.20
2018-10-06T08:58:05.031Z,91.30
2018-10-06T09:00:34.087Z,91.30
2018-10-06T09:03:03.121Z,91.30
2018-10-06T09:05:32.205Z,91.30
2018-10-06T09:08:01.276Z,91.40
2018-10-06T09:10:30.283Z,91.40
2018-10-06T09:12:59.372Z,91.40
2018-10-06T09:15:28.395Z,91.40
2018-10-06T09:17:57.562Z,91.70
2018-10-06T09:20:26.508Z,91.50
2018-10-06T09:22:55.498Z,91.50
2018-10-06T09:25:24.663Z,91.50
2018-10-06T09:27:53.648Z,91.50
2018-10-06T09:30:22.654Z,91.60
2018-10-06T09:32:51.766Z,91.60
2018-10-06T09:35:20.914Z,91.60
2018-10-06T09:37:50.031Z,91.60
2018-10-06T09:40:19.078Z,91.60
2018-10-06T09:42:48.219Z,91.70
2018-10-06T09:45:17.178Z,91.80
2018-10-06T09:47:46.306Z,91.70
2018-10-06T09:50:15.338Z,91.60
2018-10-06T09:52:44.342Z,91.60
2018-10-06T09:55:13.474Z,91.60
2018-10-06T09:57:42.615Z,91.70
2018-10-06T10:00:11.696Z,91.80
2018-10-06T10:02:46.030Z,91.90
2018-10-06T10:05:20.444Z,91.90
2018-10-06T10:07:49.518Z,91.90
2018-10-06T10:10:18.562Z,91.90
2018-10-06T10:12:47.732Z,91.70
2018-10-06T10:15:16.712Z,91.60
2018-10-06T10:17:45.873Z,91.50
2018-10-06T10:20:14.798Z,91.70
2018-10-06T10:22:43.936Z,91.70
2018-10-06T10:25:13.118Z,91.60
2018-10-06T10:27:42.226Z,91.60
2018-10-06T10:30:11.386Z,91.80
2018-10-06T10:32:40.487Z,91.90
2018-10-06T10:35:09.644Z,92.00
2018-10-06T10:37:38.698Z,92.20
2018-10-06T10:40:07.972Z,92.20
2018-10-06T10:42:37.018Z,92.00
2018-10-06T10:45:06.126Z,92.00
2018-10-06T10:47:35.412Z,91.90
2018-10-06T10:50:04.610Z,91.80
2018-10-06T10:52:33.764Z,91.80
2018-10-06T10:55:02.804Z,91.50
2018-10-06T10:57:31.862Z,91.40
2018-10-06T11:00:01.146Z,91.50
2018-10-06T11:02:30.080Z,91.40
2018-10-06T11:04:59.154Z,91.50
2018-10-06T11:07:28.228Z,91.50
2018-10-06T11:09:57.302Z,91.60
2018-10-06T11:12:26.386Z,91.60
2018-10-06T11:14:55.737Z,91.50
2018-10-06T11:17:24.868Z,91.30
2018-10-06T11:19:53.877Z,91.40
2018-10-06T11:22:23.887Z,91.30
2018-10-06T11:24:52.990Z,91.20
2018-10-06T11:27:22.013Z,91.00
2018-10-06T11:29:51.001Z,90.90
2018-10-06T11:32:20.009Z,91.10
2018-10-06T11:34:49.061Z,90.80
2018-10-06T11:37:18.101Z,90.70
2018-10-06T11:39:47.117Z,90.60
2018-10-06T11:42:16.279Z,90.60
2018-10-06T11:44:45.403Z,90.70
2018-10-06T11:47:14.498Z,90.30
2018-10-06T11:49:43.599Z,90.20
2018-10-06T11:52:12.683Z,90.30
2018-10-06T11:54:41.948Z,90.40
2018-10-06T11:57:11.030Z,90.50
2018-10-06T11:59:40.152Z,90.60
2018-10-06T12:02:09.167Z,90.60
2018-10-06T12:04:38.285Z,90.10
2018-10-06T12:07:07.544Z,90.20
2018-10-06T12:09:36.538Z,90.30
2018-10-06T12:12:09.355Z,90.30
2018-10-06T12:14:38.435Z,90.10
2018-10-06T12:17:07.539Z,89.90
2018-10-06T12:19:36.641Z,89.60
2018-10-06T12:22:05.730Z,90.00
2018-10-06T12:24:34.814Z,90.00
2018-10-06T12:27:03.978Z,89.30
2018-10-06T12:29:33.017Z,89.70
2018-10-06T12:32:02.104Z,90.00
2018-10-06T12:34:31.126Z,90.10
2018-10-06T12:37:00.203Z,90.00
2018-10-06T12:39:29.396Z,90.10
2018-10-06T12:41:58.479Z,89.90
2018-10-06T12:44:27.588Z,90.00
2018-10-06T12:46:56.628Z,89.50
2018-10-06T12:49:25.689Z,89.30
2018-10-06T12:51:54.725Z,88.60
2018-10-06T12:54:23.712Z,87.70
2018-10-06T12:56:52.805Z,87.50
2018-10-06T12:59:21.865Z,88.50
2018-10-06T13:01:50.933Z,88.20
2018-10-06T13:04:19.974Z,87.80
2018-10-06T13:06:49.033Z,87.10
2018-10-06T13:09:18.578Z,86.70
2018-10-06T13:11:47.867Z,87.60
2018-10-06T13:14:16.902Z,87.90
2018-10-06T13:16:45.938Z,87.20
2018-10-06T13:19:15.028Z,86.90
2018-10-06T13:21:44.084Z,86.20
2018-10-06T13:24:13.073Z,86.60
2018-10-06T13:26:42.079Z,85.40
2018-10-06T13:29:11.051Z,86.60
2018-10-06T13:31:40.107Z,85.30
2018-10-06T13:34:09.220Z,85.40
2018-10-06T13:36:38.510Z,85.30
2018-10-06T13:39:08.478Z,85.10
2018-10-06T13:41:37.588Z,84.50
2018-10-06T13:44:06.707Z,84.20
2018-10-06T13:46:35.870Z,84.00
2018-10-06T13:49:04.878Z,84.70
2018-10-06T13:51:33.966Z,84.70
2018-10-06T13:54:03.005Z,83.60
2018-10-06T13:56:32.082Z,84.30
2018-10-06T13:59:01.276Z,84.10
2018-10-06T14:01:30.350Z,83.50
2018-10-06T14:03:59.466Z,83.30
2018-10-06T14:06:28.614Z,83.20
2018-10-06T14:08:57.856Z,83.50
2018-10-06T14:11:26.938Z,83.00
2018-10-06T14:13:56.058Z,83.30
2018-10-06T14:16:25.085Z,82.20
2018-10-06T14:18:54.199Z,82.80
2018-10-06T14:21:23.309Z,82.50
2018-10-06T14:23:52.442Z,82.20
2018-10-06T14:26:21.794Z,82.30
2018-10-06T14:28:50.815Z,82.70
2018-10-06T14:31:19.927Z,81.80
2018-10-06T14:33:49.010Z,82.00
2018-10-06T14:36:18.142Z,81.60
2018-10-06T14:38:47.214Z,81.30
2018-10-06T14:41:16.314Z,81.30
2018-10-06T14:43:45.426Z,81.30
2018-10-06T14:46:14.522Z,81.50
2018-10-06T14:48:43.652Z,80.90
2018-10-06T14:51:13.185Z,80.70
2018-10-06T14:53:42.323Z,80.10
2018-10-06T14:56:11.397Z,80.60
2018-10-06T14:58:40.483Z,80.60
2018-10-06T15:01:09.586Z,81.00
2018-10-06T15:03:38.633Z,80.00
2018-10-06T15:06:07.689Z,80.90
2018-10-06T15:08:36.791Z,81.00
2018-10-06T15:11:05.963Z,81.40
2018-10-06T15:13:36.027Z,81.60
2018-10-06T15:16:05.121Z,81.30
2018-10-06T15:18:34.185Z,80.50
2018-10-06T15:21:03.311Z,81.00
2018-10-06T15:23:32.337Z,80.70
2018-10-06T15:26:01.355Z,81.10
2018-10-06T15:28:30.465Z,81.50
2018-10-06T15:30:59.534Z,82.10
2018-10-06T15:33:28.633Z,80.90
2018-10-06T15:35:58.056Z,81.70
2018-10-06T15:38:27.074Z,81.80
2018-10-06T15:40:56.170Z,81.80
2018-10-06T15:43:25.209Z,81.30
2018-10-06T15:45:54.225Z,81.20
2018-10-06T15:48:23.350Z,81.40
2018-10-06T15:50:52.552Z,81.30
2018-10-06T15:53:21.701Z,81.40
2018-10-06T15:55:50.685Z,80.70
2018-10-06T15:58:19.703Z,81.10
2018-10-06T16:00:48.694Z,80.90
2018-10-06T16:03:17.678Z,80.90
2018-10-06T16:05:46.856Z,80.80
2018-10-06T16:08:15.963Z,81.00
2018-10-06T16:10:44.977Z,81.00
2018-10-06T16:13:14.179Z,80.70
2018-10-06T16:15:43.337Z,80.70
2018-10-06T16:18:12.354Z,80.80
2018-10-06T16:20:41.376Z,80.50
2018-10-06T16:23:10.462Z,80.40
2018-10-06T16:25:39.519Z,80.50
2018-10-06T16:28:08.614Z,80.40
2018-10-06T16:30:37.644Z,79.90
2018-10-06T16:33:06.945Z,80.20
2018-10-06T16:35:36.070Z,80.20
2018-10-06T16:38:05.273Z,80.30
2018-10-06T16:40:34.341Z,80.20
2018-10-06T16:43:03.444Z,80.30
2018-10-06T16:45:32.820Z,80.00
2018-10-06T16:48:01.939Z,79.90
2018-10-06T16:50:31.082Z,79.90
2018-10-06T16:53:00.146Z,79.80
2018-10-06T16:55:29.182Z,79.90
2018-10-06T16:57:58.258Z,79.90
2018-10-06T17:00:27.415Z,79.90
2018-10-06T17:02:56.442Z,80.10
2018-10-06T17:05:25.551Z,80.00
2018-10-06T17:07:54.654Z,79.90
2018-10-06T17:10:24.509Z,79.90
2018-10-06T17:12:53.598Z,79.80
2018-10-06T17:15:22.677Z,79.70
2018-10-06T17:17:51.674Z,79.60
2018-10-06T17:20:21.016Z,79.50
2018-10-06T17:22:50.064Z,79.50
2018-10-06T17:25:19.081Z,79.40
2018-10-06T17:27:48.158Z,79.40
2018-10-06T17:30:17.332Z,79.30
2018-10-06T17:32:46.377Z,79.20
2018-10-06T17:35:15.373Z,79.20
2018-10-06T17:37:44.455Z,79.10
2018-10-06T17:40:13.491Z,79.10
2018-10-06T17:42:42.561Z,78.90
2018-10-06T17:45:11.631Z,78.80
2018-10-06T17:47:40.785Z,78.80
2018-10-06T17:50:10.104Z,78.90
2018-10-06T17:52:38.928Z,78.80
2018-10-06T17:55:07.929Z,79.00
2018-10-06T17:57:37.468Z,78.90
2018-10-06T18:00:06.521Z,79.00
2018-10-06T18:02:35.515Z,79.10
2018-10-06T18:05:04.614Z,79.00
2018-10-06T18:07:33.721Z,79.00
2018-10-06T18:10:02.860Z,79.10
2018-10-06T18:12:31.885Z,79.20
2018-10-06T18:15:00.969Z,79.10
2018-10-06T18:17:30.051Z,79.10
2018-10-06T18:19:59.149Z,79.20
2018-10-06T18:22:28.143Z,79.30
2018-10-06T18:24:57.233Z,79.30
2018-10-06T18:27:26.311Z,79.40
2018-10-06T18:29:55.373Z,79.50
2018-10-06T18:32:24.439Z,79.40
2018-10-06T18:34:53.556Z,79.40
2018-10-06T18:37:22.715Z,80.00
2018-10-06T18:39:51.743Z,80.00
2018-10-06T18:42:20.806Z,80.30
2018-10-06T18:44:49.937Z,80.50
2018-10-06T18:47:19.059Z,81.00
2018-10-06T18:49:48.122Z,80.90
2018-10-06T18:52:17.232Z,80.80
2018-10-06T18:54:46.375Z,80.70
2018-10-06T18:57:15.407Z,81.20
2018-10-06T18:59:44.516Z,81.00
2018-10-06T19:02:13.635Z,81.30
2018-10-06T19:04:42.725Z,81.40
2018-10-06T19:07:11.788Z,81.30
2018-10-06T19:09:40.895Z,81.50
2018-10-06T19:12:10.025Z,81.40
2018-10-06T19:14:39.082Z,81.50
2018-10-06T19:17:08.169Z,81.60
2018-10-06T19:19:37.308Z,81.50
2018-10-06T19:22:06.364Z,81.60
2018-10-06T19:24:35.434Z,81.80
2018-10-06T19:27:04.601Z,81.90
2018-10-06T19:29:33.690Z,81.90
2018-10-06T19:32:02.730Z,82.10
2018-10-06T19:34:31.852Z,82.50
2018-10-06T19:37:00.886Z,82.30
2018-10-06T19:39:29.948Z,82.70
2018-10-06T19:41:59.018Z,82.50
2018-10-06T19:44:28.343Z,82.50
2018-10-06T19:46:57.450Z,82.40
2018-10-06T19:49:26.440Z,82.40
2018-10-06T19:51:55.456Z,82.40
2018-10-06T19:54:24.475Z,82.50
2018-10-06T19:56:53.467Z,83.00
2018-10-06T19:59:22.482Z,82.70
2018-10-06T20:01:51.626Z,83.00
2018-10-06T20:04:20.784Z,82.80
2018-10-06T20:06:49.744Z,82.90
2018-10-06T20:09:18.744Z,83.10
2018-10-06T20:11:47.824Z,83.00
2018-10-06T20:14:16.907Z,83.10
2018-10-06T20:16:45.978Z,83.40
2018-10-06T20:19:15.162Z,83.50
2018-10-06T20:21:44.158Z,83.40
2018-10-06T20:24:13.216Z,83.90
2018-10-06T20:26:42.226Z,83.80
2018-10-06T20:29:17.832Z,84.30
2018-10-06T20:31:46.986Z,84.50
2018-10-06T20:34:16.098Z,84.80
2018-10-06T20:36:45.183Z,85.30
2018-10-06T20:39:14.278Z,85.50
2018-10-06T20:41:43.394Z,85.60
2018-10-06T20:44:12.426Z,86.30
2018-10-06T20:46:41.461Z,86.10
2018-10-06T20:49:10.537Z,85.70
2018-10-06T20:51:39.638Z,86.50
2018-10-06T20:54:08.765Z,85.90
2018-10-06T20:56:37.796Z,86.00
2018-10-06T20:59:06.805Z,86.00
2018-10-06T21:01:35.959Z,86.50
2018-10-06T21:04:05.014Z,86.40
2018-10-06T21:06:34.077Z,86.50
2018-10-06T21:09:03.195Z,86.60
2018-10-06T21:11:32.307Z,87.00
2018-10-06T21:14:01.385Z,87.60
2018-10-06T21:16:30.357Z,87.10
2018-10-06T21:18:59.406Z,87.20
2018-10-06T21:21:28.497Z,88.40
2018-10-06T21:23:57.554Z,87.20
2018-10-06T21:26:26.557Z,88.00
2018-10-06T21:28:55.627Z,88.20
2018-10-06T21:31:24.643Z,87.20
2018-10-06T21:33:53.617Z,87.00
2018-10-06T21:36:22.615Z,87.00
2018-10-06T21:38:51.700Z,87.90
2018-10-06T21:41:20.717Z,88.00
2018-10-06T21:43:49.909Z,87.70
2018-10-06T21:46:19.859Z,87.80
2018-10-06T21:48:48.865Z,87.40
2018-10-06T21:51:17.883Z,88.00
2018-10-06T21:53:46.927Z,87.30
2018-10-06T21:56:15.987Z,87.50
2018-10-06T21:58:45.004Z,87.10
2018-10-06T22:01:14.936Z,87.00
2018-10-06T22:03:43.906Z,87.40
2018-10-06T22:06:12.921Z,87.80
2018-10-06T22:08:42.569Z,87.60
2018-10-06T22:11:12.959Z,87.80
2018-10-06T22:13:42.487Z,88.10
2018-10-06T22:16:11.516Z,87.90
2018-10-06T22:18:40.568Z,88.00
2018-10-06T22:21:09.735Z,88.80
2018-10-06T22:23:38.942Z,88.90
2018-10-06T22:26:08.050Z,89.00
2018-10-06T22:28:37.164Z,88.50
2018-10-06T22:31:06.439Z,89.90
2018-10-06T22:33:35.582Z,88.60
2018-10-06T22:36:04.668Z,88.70
2018-10-06T22:38:33.838Z,88.60
2018-10-06T22:41:02.933Z,88.30
2018-10-06T22:43:32.071Z,88.20
2018-10-06T22:46:01.216Z,88.00
2018-10-06T22:48:30.413Z,88.10
2018-10-06T22:50:59.539Z,88.10
2018-10-06T22:53:28.694Z,88.60
2018-10-06T22:55:57.803Z,88.30
2018-10-06T22:58:26.973Z,88.50
2018-10-06T23:00:56.019Z,88.30
2018-10-06T23:03:25.128Z,88.70
2018-10-06T23:05:54.280Z,88.50
2018-10-06T23:08:23.619Z,89.30
2018-10-06T23:10:52.703Z,89.60
2018-10-06T23:13:21.847Z,89.30
2018-10-06T23:15:50.883Z,88.90
2018-10-06T23:18:19.985Z,88.90
2018-10-06T23:20:49.714Z,88.70
2018-10-06T23:23:18.854Z,89.10
2018-10-06T23:25:48.172Z,88.90
2018-10-06T23:28:17.303Z,89.20
2018-10-06T23:30:46.390Z,89.20
2018-10-06T23:33:15.491Z,89.40
2018-10-06T23:35:44.629Z,89.10
2018-10-06T23:38:13.757Z,89.30
2018-10-06T23:40:42.871Z,89.80
2018-10-06T23:43:11.980Z,90.30
2018-10-06T23:45:41.082Z,90.20
2018-10-06T23:48:10.169Z,90.20
2018-10-06T23:50:39.271Z,90.40
2018-10-06T23:53:08.387Z,91.10
2018-10-06T23:55:37.435Z,90.60
2018-10-06T23:58:06.548Z,90.50
